Lake Sumner, New Mexico
Current Conditions -  °F | °C
As of 7:56 PM on Friday 19 Dec 2014 (Local Time) from K4MR Reporting Station
Clear Clear  
Wind Chill: 27°   Ceiling: Unl
Heat Index: 34°   Visibility: 10mi
Dew Point: 24°   Wind: 8mph
Humidity: 68%   Direction: 180°S
Pressure: 30.13"   Gusts: NA
Location:  34.3001°N, 104.256°W
Report Text: K4MR 200256Z AUTO 18007KT 10SM CLR 01/M04 A3013 RMK AO2 SLP219 T00111043 52011
Loading
Personal Weather Stations






























Interactive Weather Map New forecast layout! Learn more

10-Day Weather Forecast

Advertisements
Track Severe Weather on mobile